Nanki Shirahama Airport

About
Name: Nanki Shirahama Airport
Identifier:  SHM/RJBD
Operator:  Wakayama Prefecture
Public/Private:  Public
Local Time:  21. Sep 17:46 JST
Description: Nanki–Shirahama Airport is a third class airport in Shirahama, Wakayama, Japan. It serves the southern part of the Kii Peninsula with three daily Japan Airlines round-trips to Tokyo International Airport, utilizing Embraer E170 aircraft. The travel time is 65 minutes to Haneda and 75 minutes in reverse direction.
Source: Wikipedia
Location
Nanki Shirahama
  Japan

Runways
Identifier Length (m/ft) Surface
15/33 2,000/6,562 Asphalt concrete
Statistics
Flights per Day:
5 flights
Distance: 456km (283mi)
Flights delayed:
91% (0 flights per day delayed)
Delay Average: 4 minutes
Current Weather
  9kt (16km/h / 10mph) from 100°
  9km (6 mi.)
 METAR RJBD 210800Z 10009KT 060V140 9999 FEW025 SCT050 BKN/// 25/19 Q1015

Current Flights

Arrivals
Number Arrival From Airline
Landed JL215 11:40 +1  Tokyo  Japan Airlines
Live JL219 17:55 +1  Tokyo  Japan Airlines

Current Delays

Departures
N/A
Arrivals
N/A

Destinations

Top Destinations
Airport Flights
per week
Seats
per week
  Tokyo (HND) 37 2,728 5 389

Airlines & Planes

Top Airlines
Airline Flights
per Day
Seats
per Day
  Japan Airlines 4 389
  J-Air 0 -
Top Plane Types
Model Flights Seats
Embraer E190 4.6/day 263/day 263.23333333333335
Boeing B737-800 0.8/day 126/day 126.5